> <
  • 1
  • 2

Novidades

  • Temos o prazer de lhe apresentar… Ler mais +
  • Está disponível a secção Multimédia no… Ler mais +
  • 1
[source: ADDS]
METAR
LPPR 201800Z VRB05KT CAVOK 23/13 Q1016 =
TAF LPPR 201700Z 2018/2118 08008KT CAVOK BECMG 2112/2115 VRB03KT 9999 FEW020 PROB30 TEMPO 2112/2118 8000 SHRA BKN020
TAF
TAF LPPR 201700Z 2018/2118 08008KT CAVOK BECMG 2112/2115 VRB03KT 9999 FEW020 PROB30 TEMPO 2112/2118 8000 SHRA BKN020 =

contactos